createdAt,value
2018-04-25T00:01:37.164Z,99.60
2018-04-25T00:04:12.101Z,99.60
2018-04-25T00:06:47.333Z,99.30
2018-04-25T00:09:23.612Z,99.30
2018-04-25T00:11:58.846Z,99.50
2018-04-25T00:14:33.982Z,99.40
2018-04-25T00:17:09.235Z,99.10
2018-04-25T00:19:44.267Z,98.80
2018-04-25T00:22:19.908Z,98.80
2018-04-25T00:24:55.662Z,98.50
2018-04-25T00:27:31.536Z,97.90
2018-04-25T00:30:07.465Z,97.80
2018-04-25T00:32:43.063Z,97.80
2018-04-25T00:35:18.770Z,98.00
2018-04-25T00:37:53.816Z,98.00
2018-04-25T00:40:28.879Z,98.10
2018-04-25T00:43:04.994Z,98.30
2018-04-25T00:45:40.422Z,98.40
2018-04-25T00:48:15.945Z,98.50
2018-04-25T00:50:53.060Z,98.40
2018-04-25T00:53:28.293Z,98.40
2018-04-25T00:56:03.730Z,98.30
2018-04-25T00:58:39.625Z,98.30
2018-04-25T01:01:17.461Z,98.40
2018-04-25T01:03:53.339Z,98.50
2018-04-25T01:06:28.305Z,98.90
2018-04-25T01:09:03.745Z,98.90
2018-04-25T01:11:39.268Z,99.00
2018-04-25T01:14:14.841Z,99.20
2018-04-25T01:16:50.282Z,99.20
2018-04-25T01:19:26.967Z,99.30
2018-04-25T01:22:02.246Z,99.30
2018-04-25T01:24:38.484Z,99.30
2018-04-25T01:27:13.914Z,99.20
2018-04-25T01:29:50.225Z,99.20
2018-04-25T01:32:25.679Z,99.20
2018-04-25T01:35:02.600Z,99.10
2018-04-25T01:37:53.233Z,99.10
2018-04-25T01:40:29.968Z,98.90
2018-04-25T01:43:15.600Z,98.90
2018-04-25T01:46:09.230Z,99.30
2018-04-25T01:51:58.182Z,98.90
2018-04-25T01:54:51.262Z,99.20
2018-04-25T01:57:43.719Z,98.40
2018-04-25T02:00:36.465Z,98.20
2018-04-25T02:06:24.632Z,98.60
2018-04-25T02:09:00.204Z,98.80
2018-04-25T02:11:36.122Z,98.70
2018-04-25T02:14:12.122Z,98.40
2018-04-25T02:16:48.510Z,98.30
2018-04-25T02:19:24.411Z,98.40
2018-04-25T02:22:00.847Z,98.10
2018-04-25T02:24:36.447Z,98.00
2018-04-25T02:27:12.117Z,98.20
2018-04-25T02:29:47.620Z,98.00
2018-04-25T02:32:23.749Z,97.90
2018-04-25T02:34:58.965Z,97.80
2018-04-25T02:37:33.845Z,98.10
2018-04-25T02:40:09.216Z,97.90
2018-04-25T02:42:45.797Z,98.10
2018-04-25T02:45:21.344Z,98.10
2018-04-25T02:47:57.473Z,98.20
2018-04-25T02:50:32.402Z,98.20
2018-04-25T02:53:07.236Z,98.30
2018-04-25T02:55:42.272Z,98.40
2018-04-25T02:58:18.842Z,98.70
2018-04-25T03:00:53.873Z,98.50
2018-04-25T03:03:29.726Z,99.10
2018-04-25T03:06:04.773Z,99.30
2018-04-25T03:08:39.906Z,98.60
2018-04-25T03:11:15.575Z,99.00
2018-04-25T03:13:51.321Z,98.90
2018-04-25T03:16:27.797Z,99.10
2018-04-25T03:19:02.808Z,99.10
2018-04-25T03:21:37.740Z,99.50
2018-04-25T03:24:12.775Z,99.50
2018-04-25T03:26:48.015Z,99.80
2018-04-25T03:29:23.869Z,99.90
2018-04-25T03:31:59.622Z,99.90
2018-04-25T03:34:34.357Z,99.60
2018-04-25T03:37:09.593Z,99.70
2018-04-25T03:39:45.242Z,99.90
2018-04-25T03:42:20.274Z,99.90
2018-04-25T03:44:55.313Z,99.90
2018-04-25T03:47:31.374Z,99.90
2018-04-25T03:50:07.101Z,99.90
2018-04-25T03:52:42.768Z,99.90
2018-04-25T03:55:18.523Z,99.90
2018-04-25T03:57:55.094Z,99.90
2018-04-25T04:00:30.396Z,99.90
2018-04-25T04:03:06.085Z,99.90
2018-04-25T04:05:41.016Z,99.90
2018-04-25T04:08:15.849Z,99.90
2018-04-25T04:10:51.078Z,99.90
2018-04-25T04:13:26.737Z,99.90
2018-04-25T04:16:01.710Z,99.90
2018-04-25T04:18:36.497Z,99.90
2018-04-25T04:21:11.738Z,99.90
2018-04-25T04:23:46.569Z,99.90
2018-04-25T04:26:21.502Z,99.90
2018-04-25T04:28:56.337Z,99.90
2018-04-25T04:31:32.698Z,99.90
2018-04-25T04:34:07.943Z,99.90
2018-04-25T04:36:42.974Z,99.90
2018-04-25T04:39:17.804Z,99.70
2018-04-25T04:41:53.044Z,99.40
2018-04-25T04:44:29.719Z,99.10
2018-04-25T04:47:04.757Z,99.10
2018-04-25T04:49:40.606Z,98.70
2018-04-25T04:52:16.563Z,98.80
2018-04-25T04:54:51.810Z,98.80
2018-04-25T04:57:27.349Z,98.60
2018-04-25T05:00:02.281Z,98.60
2018-04-25T05:02:38.751Z,98.80
2018-04-25T05:05:13.893Z,98.80
2018-04-25T05:07:48.822Z,98.80
2018-04-25T05:10:24.583Z,98.90
2018-04-25T05:12:59.305Z,98.70
2018-04-25T05:15:34.883Z,98.70
2018-04-25T05:18:10.342Z,98.80
2018-04-25T05:20:46.023Z,98.60
2018-04-25T05:23:22.327Z,98.40
2018-04-25T05:25:57.964Z,98.40
2018-04-25T05:28:32.793Z,98.30
2018-04-25T05:31:07.943Z,98.10
2018-04-25T05:33:43.789Z,97.80
2018-04-25T05:36:19.635Z,97.60
2018-04-25T05:38:55.183Z,97.60
2018-04-25T05:41:30.216Z,97.60
2018-04-25T05:44:05.055Z,97.40
2018-04-25T05:46:40.706Z,97.20
2018-04-25T05:49:17.680Z,96.50
2018-04-25T05:51:53.846Z,96.40
2018-04-25T05:54:29.386Z,95.90
2018-04-25T05:57:04.531Z,95.30
2018-04-25T05:59:41.246Z,94.80
2018-04-25T06:02:17.972Z,94.10
2018-04-25T06:04:53.112Z,94.10
2018-04-25T06:07:28.948Z,94.10
2018-04-25T06:10:04.729Z,94.20
2018-04-25T06:12:39.782Z,94.00
2018-04-25T06:15:15.607Z,93.70
2018-04-25T06:17:51.201Z,93.40
2018-04-25T06:20:26.297Z,93.10
2018-04-25T06:23:02.043Z,93.20
2018-04-25T06:25:36.875Z,93.10
2018-04-25T06:28:11.754Z,93.10
2018-04-25T06:30:46.538Z,93.00
2018-04-25T06:33:22.189Z,93.00
2018-04-25T06:35:57.738Z,93.00
2018-04-25T06:38:33.588Z,93.10
2018-04-25T06:41:08.624Z,93.00
2018-04-25T06:43:43.658Z,93.00
2018-04-25T06:46:18.939Z,92.90
2018-04-25T06:48:54.443Z,92.80
2018-04-25T06:51:30.197Z,92.70
2018-04-25T06:54:05.127Z,92.60
2018-04-25T06:56:40.035Z,92.40
2018-04-25T06:59:14.947Z,92.00
2018-04-25T07:01:51.460Z,91.60
2018-04-25T07:04:26.436Z,91.60
2018-04-25T07:07:01.270Z,90.30
2018-04-25T07:09:36.156Z,90.00
2018-04-25T07:12:12.172Z,88.90
2018-04-25T07:14:47.661Z,88.90
2018-04-25T07:17:22.700Z,87.80
2018-04-25T07:19:59.175Z,86.70
2018-04-25T07:22:34.440Z,86.50
2018-04-25T07:25:09.543Z,84.60
2018-04-25T07:27:45.117Z,84.60
2018-04-25T07:30:20.739Z,81.70
2018-04-25T07:32:55.983Z,81.60
2018-04-25T07:35:31.772Z,79.00
2018-04-25T07:38:07.687Z,75.50
2018-04-25T07:40:42.518Z,73.60
2018-04-25T07:43:17.353Z,71.80
2018-04-25T07:45:52.593Z,69.80
2018-04-25T07:48:28.037Z,68.30
2018-04-25T07:51:03.685Z,66.50
2018-04-25T07:53:38.722Z,65.50
2018-04-25T07:56:13.961Z,64.90
2018-04-25T07:58:49.769Z,64.60
2018-04-25T08:01:25.859Z,63.50
2018-04-25T08:04:01.633Z,62.30
2018-04-25T08:06:37.273Z,61.70
2018-04-25T08:09:12.119Z,60.80
2018-04-25T08:11:47.141Z,60.00
2018-04-25T08:14:35.076Z,59.00
2018-04-25T08:17:21.933Z,57.30
2018-04-25T08:22:57.967Z,53.40
2018-04-25T08:25:33.207Z,53.20
2018-04-25T08:28:08.859Z,52.30
2018-04-25T08:30:43.685Z,51.80
2018-04-25T08:33:18.723Z,51.00
2018-04-25T08:35:53.492Z,49.30
2018-04-25T08:38:28.592Z,50.10
2018-04-25T08:41:04.445Z,50.60
2018-04-25T08:43:40.298Z,50.50
2018-04-25T08:46:16.424Z,50.90
2018-04-25T08:48:52.727Z,50.00
2018-04-25T08:51:27.779Z,50.00
2018-04-25T08:54:02.538Z,49.60
2018-04-25T08:56:37.407Z,48.80
2018-04-25T08:59:13.337Z,48.60
2018-04-25T09:01:49.028Z,48.50
2018-04-25T09:04:24.065Z,48.00
2018-04-25T09:06:58.920Z,47.00
2018-04-25T09:09:33.944Z,49.00
2018-04-25T09:12:08.860Z,49.90
2018-04-25T09:14:43.794Z,50.30
2018-04-25T09:17:18.580Z,52.30
2018-04-25T09:19:54.483Z,54.20
2018-04-25T09:22:30.333Z,55.20
2018-04-25T09:25:06.082Z,55.20
2018-04-25T09:27:41.587Z,55.00
2018-04-25T09:30:17.178Z,59.60
2018-04-25T09:32:52.423Z,59.50
2018-04-25T09:35:27.244Z,61.40
2018-04-25T09:38:02.491Z,63.00
2018-04-25T09:40:37.934Z,63.30
2018-04-25T09:43:13.170Z,64.70
2018-04-25T09:45:48.979Z,65.30
2018-04-25T09:48:24.675Z,65.90
2018-04-25T09:51:00.632Z,67.30
2018-04-25T09:53:36.485Z,67.60
2018-04-25T09:56:12.338Z,68.70
2018-04-25T09:58:47.989Z,69.50
2018-04-25T10:01:28.553Z,69.60
2018-04-25T10:04:03.871Z,69.70
2018-04-25T10:06:39.857Z,68.90
2018-04-25T10:09:15.448Z,69.90
2018-04-25T10:11:50.747Z,69.00
2018-04-25T10:14:26.400Z,69.50
2018-04-25T10:17:02.270Z,69.30
2018-04-25T10:19:38.102Z,71.30
2018-04-25T10:22:15.078Z,72.50
2018-04-25T10:24:50.233Z,72.50
2018-04-25T10:27:26.899Z,71.50
2018-04-25T10:30:02.010Z,71.40
2018-04-25T10:32:37.686Z,70.30
2018-04-25T10:35:12.505Z,68.10
2018-04-25T10:37:47.446Z,66.70
2018-04-25T10:40:22.502Z,65.70
2018-04-25T10:42:57.519Z,64.20
2018-04-25T10:45:33.163Z,63.60
2018-04-25T10:48:08.207Z,61.40
2018-04-25T10:50:44.469Z,61.70
2018-04-25T10:53:19.702Z,59.10
2018-04-25T10:55:55.154Z,55.90
2018-04-25T10:58:31.024Z,58.30
2018-04-25T11:01:06.901Z,58.10
2018-04-25T11:03:42.713Z,57.90
2018-04-25T11:06:17.750Z,55.80
2018-04-25T11:08:53.602Z,53.90
2018-04-25T11:11:29.297Z,52.60
2018-04-25T11:14:04.389Z,52.10
2018-04-25T11:16:39.216Z,56.20
2018-04-25T11:19:15.071Z,55.20
2018-04-25T11:21:49.909Z,57.30
2018-04-25T11:24:24.936Z,56.50
2018-04-25T11:26:59.771Z,54.60
2018-04-25T11:29:34.808Z,53.70
2018-04-25T11:32:09.542Z,52.90
2018-04-25T11:34:45.283Z,55.80
2018-04-25T11:37:20.315Z,55.70
2018-04-25T11:39:55.355Z,56.10
2018-04-25T11:42:30.394Z,57.70
2018-04-25T11:45:06.856Z,60.00
2018-04-25T11:47:43.733Z,60.50
2018-04-25T11:50:18.983Z,60.40
2018-04-25T11:52:55.743Z,60.60
2018-04-25T11:55:30.688Z,61.70
2018-04-25T11:58:05.720Z,62.30
2018-04-25T12:00:42.291Z,61.80
2018-04-25T12:03:17.529Z,59.40
2018-04-25T12:05:53.384Z,60.00
2018-04-25T12:08:29.248Z,63.00
2018-04-25T12:11:05.097Z,64.20
2018-04-25T12:13:40.065Z,64.20
2018-04-25T12:16:15.879Z,65.70
2018-04-25T12:18:50.712Z,69.20
2018-04-25T12:21:25.540Z,70.80
2018-04-25T12:24:00.371Z,70.40
2018-04-25T12:26:35.410Z,69.40
2018-04-25T12:29:10.679Z,66.70
2018-04-25T12:31:47.317Z,68.00
2018-04-25T12:34:23.170Z,66.40
2018-04-25T12:36:58.217Z,66.40
2018-04-25T12:39:33.245Z,67.20
2018-04-25T12:42:08.896Z,67.90
2018-04-25T12:44:43.929Z,67.30
2018-04-25T12:47:19.020Z,69.00
2018-04-25T12:49:53.792Z,71.70
2018-04-25T12:52:29.032Z,73.20
2018-04-25T12:55:04.073Z,74.90
2018-04-25T12:57:39.103Z,74.80
2018-04-25T13:00:14.138Z,76.80
2018-04-25T13:02:49.787Z,78.90
2018-04-25T13:05:24.620Z,79.00
2018-04-25T13:07:59.694Z,80.20
2018-04-25T13:10:35.443Z,81.20
2018-04-25T13:13:10.547Z,80.30
2018-04-25T13:15:46.032Z,79.30
2018-04-25T13:18:21.077Z,79.10
2018-04-25T13:20:55.806Z,81.10
2018-04-25T13:23:30.683Z,81.80
2018-04-25T13:26:05.620Z,83.20
2018-04-25T13:28:40.658Z,85.40
2018-04-25T13:31:15.332Z,86.20
2018-04-25T13:33:50.152Z,87.20
2018-04-25T13:36:24.941Z,90.50
2018-04-25T13:39:00.586Z,91.30
2018-04-25T13:41:37.200Z,93.30
2018-04-25T13:44:12.316Z,93.30
2018-04-25T13:46:48.128Z,94.00
2018-04-25T13:49:22.748Z,94.70
2018-04-25T13:51:57.710Z,95.40
2018-04-25T13:54:32.540Z,95.70
2018-04-25T13:57:07.676Z,96.00
2018-04-25T13:59:43.430Z,96.20
2018-04-25T14:02:18.466Z,95.90
2018-04-25T14:04:53.405Z,96.20
2018-04-25T14:07:28.074Z,97.00
2018-04-25T14:10:03.159Z,97.40
2018-04-25T14:12:38.090Z,97.80
2018-04-25T14:15:12.924Z,98.40
2018-04-25T14:17:47.889Z,99.10
2018-04-25T14:20:22.743Z,99.80
2018-04-25T14:22:57.720Z,99.70
2018-04-25T14:25:33.368Z,99.90
2018-04-25T14:28:08.915Z,99.90
2018-04-25T14:30:44.600Z,99.90
2018-04-25T14:33:20.323Z,99.90
2018-04-25T14:35:55.076Z,99.90
2018-04-25T14:38:31.317Z,99.90
2018-04-25T14:41:06.581Z,99.90
2018-04-25T14:43:42.166Z,99.90
2018-04-25T14:46:17.351Z,99.90
2018-04-25T14:48:53.193Z,99.90
2018-04-25T14:51:27.972Z,99.90
2018-04-25T14:54:02.886Z,99.90
2018-04-25T14:56:37.825Z,99.90
2018-04-25T14:59:12.616Z,99.90
2018-04-25T15:01:47.498Z,99.90
2018-04-25T15:04:22.494Z,99.90
2018-04-25T15:06:57.471Z,99.90
2018-04-25T15:09:33.738Z,99.90
2018-04-25T15:12:08.985Z,99.90
2018-04-25T15:14:44.100Z,99.90
2018-04-25T15:17:20.831Z,99.90
2018-04-25T15:19:55.921Z,99.90
2018-04-25T15:22:31.384Z,99.90
2018-04-25T15:25:07.125Z,99.90
2018-04-25T15:27:41.859Z,99.90
2018-04-25T15:30:16.826Z,99.90
2018-04-25T15:32:52.429Z,99.90
2018-04-25T15:35:27.291Z,99.90
2018-04-25T15:38:02.215Z,99.90
2018-04-25T15:40:37.741Z,99.90
2018-04-25T15:43:13.126Z,99.90
2018-04-25T15:45:48.575Z,99.90
2018-04-25T15:48:24.323Z,99.90
2018-04-25T15:50:59.395Z,99.90
2018-04-25T15:53:34.598Z,99.90
2018-04-25T15:56:09.633Z,99.90
2018-04-25T15:58:44.496Z,99.90
2018-04-25T16:01:19.500Z,99.90
2018-04-25T16:03:54.603Z,99.90
2018-04-25T16:06:29.574Z,99.90
2018-04-25T16:09:04.710Z,99.90
2018-04-25T16:11:41.069Z,99.90
2018-04-25T16:14:16.049Z,99.90
2018-04-25T16:16:51.057Z,99.90
2018-04-25T16:19:25.884Z,99.90
2018-04-25T16:22:00.736Z,99.90
2018-04-25T16:24:35.728Z,99.90
2018-04-25T16:27:10.982Z,99.90
2018-04-25T16:29:46.505Z,99.90
2018-04-25T16:32:21.949Z,99.90
2018-04-25T16:34:58.130Z,99.90
2018-04-25T16:37:32.918Z,99.90
2018-04-25T16:40:08.018Z,99.60
2018-04-25T16:42:43.025Z,99.40
2018-04-25T16:45:17.862Z,99.20
2018-04-25T16:47:53.061Z,98.50
2018-04-25T16:50:28.124Z,98.90
2018-04-25T16:53:03.785Z,98.60
2018-04-25T16:55:39.138Z,98.60
2018-04-25T16:58:13.814Z,98.40
2018-04-25T17:00:48.936Z,98.30
2018-04-25T17:03:24.571Z,97.90
2018-04-25T17:06:00.203Z,97.30
2018-04-25T17:08:34.968Z,97.20
2018-04-25T17:11:09.644Z,96.90
2018-04-25T17:13:44.485Z,97.30
2018-04-25T17:16:19.551Z,97.20
2018-04-25T17:18:54.429Z,97.30
2018-04-25T17:21:29.483Z,96.90
2018-04-25T17:24:04.767Z,96.40
2018-04-25T17:26:39.636Z,96.30
2018-04-25T17:29:14.835Z,96.10
2018-04-25T17:31:50.137Z,95.90
2018-04-25T17:34:25.120Z,95.90
2018-04-25T17:37:00.143Z,95.80
2018-04-25T17:39:36.317Z,95.80
2018-04-25T17:42:11.301Z,95.50
2018-04-25T17:44:45.976Z,95.30
2018-04-25T17:47:21.125Z,95.30
2018-04-25T17:49:57.128Z,95.30
2018-04-25T17:52:32.154Z,95.30
2018-04-25T17:55:06.984Z,95.90
2018-04-25T17:57:42.055Z,96.00
2018-04-25T18:00:17.157Z,96.10
2018-04-25T18:02:52.155Z,96.10
2018-04-25T18:05:28.163Z,96.20
2018-04-25T18:08:03.389Z,95.90
2018-04-25T18:10:39.151Z,95.70
2018-04-25T18:13:14.535Z,95.70
2018-04-25T18:15:50.235Z,95.60
2018-04-25T18:18:25.270Z,95.60
2018-04-25T18:21:00.307Z,95.80
2018-04-25T18:23:36.148Z,95.90
2018-04-25T18:26:11.901Z,96.20
2018-04-25T18:28:47.068Z,96.10
2018-04-25T18:31:21.765Z,96.30
2018-04-25T18:33:56.735Z,96.20
2018-04-25T18:36:31.790Z,96.20
2018-04-25T18:39:06.704Z,96.10
2018-04-25T18:41:41.647Z,96.10
2018-04-25T18:44:17.600Z,96.20
2018-04-25T18:46:53.060Z,96.10
2018-04-25T18:49:27.993Z,96.40
2018-04-25T18:52:03.493Z,96.70
2018-04-25T18:54:38.865Z,96.80
2018-04-25T18:57:13.981Z,96.60
2018-04-25T18:59:49.008Z,96.60
2018-04-25T19:02:24.043Z,96.50
2018-04-25T19:04:59.829Z,96.30
2018-04-25T19:07:35.109Z,96.30
2018-04-25T19:10:10.697Z,96.60
2018-04-25T19:12:45.739Z,96.60
2018-04-25T19:15:20.741Z,96.70
2018-04-25T19:17:55.731Z,96.70
2018-04-25T19:20:30.659Z,96.70
2018-04-25T19:23:05.756Z,96.80
2018-04-25T19:25:41.302Z,96.80
2018-04-25T19:28:16.167Z,96.70
2018-04-25T19:30:51.032Z,96.70
2018-04-25T19:33:25.756Z,96.90
2018-04-25T19:36:00.939Z,97.30
2018-04-25T19:38:36.749Z,97.70
2018-04-25T19:41:11.620Z,97.90
2018-04-25T19:43:46.403Z,98.00
2018-04-25T19:46:21.697Z,98.00
2018-04-25T19:48:58.366Z,98.10
2018-04-25T19:51:33.581Z,98.20
2018-04-25T19:54:09.570Z,98.00
2018-04-25T19:56:45.154Z,97.90
2018-04-25T19:59:20.356Z,97.90
2018-04-25T20:01:55.896Z,98.10
2018-04-25T20:04:31.714Z,98.10
2018-04-25T20:07:07.610Z,98.50
2018-04-25T20:09:42.845Z,98.80
2018-04-25T20:12:18.181Z,98.70
2018-04-25T20:14:53.021Z,98.70
2018-04-25T20:17:28.054Z,98.70
2018-04-25T20:20:03.097Z,98.70
2018-04-25T20:22:38.220Z,98.50
2018-04-25T20:25:13.266Z,98.50
2018-04-25T20:27:48.408Z,98.70
2018-04-25T20:30:23.179Z,98.70
2018-04-25T20:32:58.272Z,98.50
2018-04-25T20:35:33.090Z,98.50
2018-04-25T20:38:08.128Z,98.60
2018-04-25T20:40:43.675Z,99.00
2018-04-25T20:43:18.720Z,99.20
2018-04-25T20:45:53.644Z,99.30
2018-04-25T20:48:29.442Z,99.30
2018-04-25T20:51:05.744Z,99.00
2018-04-25T20:53:42.249Z,98.80
2018-04-25T20:56:17.428Z,98.70
2018-04-25T20:58:53.934Z,99.20
2018-04-25T21:01:29.114Z,99.30
2018-04-25T21:04:03.955Z,99.50
2018-04-25T21:06:39.386Z,99.70
2018-04-25T21:09:14.284Z,99.40
2018-04-25T21:11:49.419Z,99.90
2018-04-25T21:14:24.560Z,99.90
2018-04-25T21:16:59.388Z,99.90
2018-04-25T21:19:34.612Z,99.90
2018-04-25T21:22:09.763Z,99.90
2018-04-25T21:24:44.799Z,99.90
2018-04-25T21:27:19.786Z,99.90
2018-04-25T21:29:54.664Z,99.90
2018-04-25T21:32:29.494Z,99.90
2018-04-25T21:35:05.964Z,99.90
2018-04-25T21:37:40.996Z,99.90
2018-04-25T21:40:16.238Z,99.90
2018-04-25T21:42:51.277Z,99.90
2018-04-25T21:45:26.316Z,99.90
2018-04-25T21:48:01.347Z,99.90
2018-04-25T21:50:37.084Z,99.90
2018-04-25T21:53:12.439Z,99.90
2018-04-25T21:55:47.477Z,99.90
2018-04-25T21:58:22.345Z,99.90
2018-04-25T22:00:57.161Z,99.90
2018-04-25T22:03:32.276Z,99.90
2018-04-25T22:06:07.924Z,99.90
2018-04-25T22:08:43.167Z,99.90
2018-04-25T22:11:19.013Z,99.90
2018-04-25T22:13:53.846Z,99.90
2018-04-25T22:16:29.084Z,99.90
2018-04-25T22:19:03.915Z,99.90
2018-04-25T22:21:38.563Z,99.90
2018-04-25T22:24:13.436Z,99.90
2018-04-25T22:26:48.609Z,99.90
2018-04-25T22:29:24.506Z,99.90
2018-04-25T22:31:59.846Z,99.90
2018-04-25T22:34:34.945Z,99.90
2018-04-25T22:37:09.766Z,99.90
2018-04-25T22:39:44.765Z,99.90
2018-04-25T22:42:19.998Z,99.90
2018-04-25T22:44:54.810Z,99.90
2018-04-25T22:47:30.120Z,99.90
2018-04-25T22:50:05.161Z,99.90
2018-04-25T22:52:40.804Z,99.90
2018-04-25T22:55:17.003Z,99.90
2018-04-25T22:57:52.518Z,99.90
2018-04-25T23:00:27.489Z,99.90
2018-04-25T23:03:03.506Z,99.90
2018-04-25T23:05:38.684Z,99.90
2018-04-25T23:08:13.790Z,99.90
2018-04-25T23:10:49.430Z,99.90
2018-04-25T23:13:25.290Z,99.90
2018-04-25T23:16:01.137Z,99.90
2018-04-25T23:18:36.384Z,99.90
2018-04-25T23:21:11.525Z,99.90
2018-04-25T23:23:46.342Z,99.90
2018-04-25T23:26:21.484Z,99.90
2018-04-25T23:28:56.728Z,99.90
2018-04-25T23:31:32.315Z,99.80
2018-04-25T23:34:08.140Z,99.60
2018-04-25T23:36:43.429Z,99.60
2018-04-25T23:39:18.408Z,99.50
2018-04-25T23:41:53.280Z,99.40
2018-04-25T23:44:28.372Z,99.40
2018-04-25T23:47:03.208Z,99.20
2018-04-25T23:49:39.710Z,99.00
2018-04-25T23:52:15.011Z,98.90
2018-04-25T23:54:50.465Z,98.90
2018-04-25T23:57:25.431Z,98.90
